KBWG/BWG METAR and TAF weather

Enter ICAO airport designator
Station Type Date Time Source
KBWG METAR 2020/02/28 06:53 UTC NOAA

KBWG 280653Z AUTO 22008KT 10SM OVC075 04/M04 A3011 RMK AO2 SLP198 T00391044


Station Type Date Time Source
KBWG Decoded METAR 2020/02/28 06:53 UTC NOAA

BOWLING GREEN-WARREN CO RGNL, KY, United States (KBWG) 36-58N 086-25W 161M
Feb 28, 2020 - 01:53 AM EST / 2020.02.28 0653 UTC
Wind: from the SW (220 degrees) at 9 MPH (8 KT):0
Visibility: 10 mile(s):0
Sky conditions: overcast
Temperature: 39.0 F (3.9 C)
Dew Point: 24.1 F (-4.4 C)
Relative Humidity: 54%
Pressure (altimeter): 30.11 in. Hg (1019 hPa)
ob: KBWG 280653Z AUTO 22008KT 10SM OVC075 04/M04 A3011 RMK AO2 SLP198 T00391044
cycle: 7

Station Type Date Time Source
KBWG TAF 2020/02/28 06:30 UTC NOAA

TAF KBWG 280527Z 2806/2906 22007KT P6SM FEW040 BKN080
FM280800 25007KT P6SM VCSH SCT025 BKN040
TEMPO 2809/2813 5SM -RASN BR BKN015
FM281300 28009KT P6SM FEW025 SCT100
FM281700 28010G18KT P6SM SCT030 BKN050
FM290000 29009KT P6SM SCT025 BKN040 PROB30 2900/2904 5SM -RA BR BKN025

Example: see airport list